Time;durP1;ratioP1;P1;durP2;ratioP2;P2;SDS_P1;SDS_P2;PMS_P1;PMS_P2;Temp;Humidity;BMP_temperature;BMP_pressure;BME280_temperature;BME280_humidity;BME280_pressure;Samples;Min_cycle;Max_cycle;Signal;HPM_P1;HPM_P2
2021/07/20 00:02:58;;;;;;;0.88;0.82;;;24.60;58.20;;;;;;6218118;28;20029;-69
2021/07/20 00:05:59;;;;;;;0.85;0.73;;;24.50;58.10;;;;;;6217471;28;20026;-69
2021/07/20 00:08:59;;;;;;;1.10;1.00;;;24.60;58.20;;;;;;6217975;28;20046;-69
2021/07/20 00:12:00;;;;;;;0.93;0.82;;;24.60;58.20;;;;;;6217735;28;20022;-69
2021/07/20 00:15:00;;;;;;;1.13;0.80;;;24.60;58.20;;;;;;6178740;28;20035;-69
2021/07/20 00:18:09;;;;;;;1.00;0.90;;;24.60;58.20;;;;;;6202249;28;20528;-69
2021/07/20 00:21:10;;;;;;;1.10;0.95;;;24.60;58.20;;;;;;6195794;28;20026;-69
2021/07/20 00:24:11;;;;;;;0.93;0.80;;;24.60;58.20;;;;;;6217945;28;20029;-69
2021/07/20 00:27:12;;;;;;;0.90;0.85;;;24.60;58.20;;;;;;6217161;28;20384;-70
2021/07/20 00:30:14;;;;;;;1.23;1.00;;;24.60;58.30;;;;;;6217305;28;20062;-69
2021/07/20 00:33:14;;;;;;;1.00;0.90;;;24.60;58.20;;;;;;6217459;28;20030;-69
2021/07/20 00:36:15;;;;;;;1.25;1.00;;;24.50;58.20;;;;;;6216602;28;20392;-69
2021/07/20 00:39:16;;;;;;;1.13;0.90;;;24.60;58.30;;;;;;6217385;28;20034;-69
2021/07/20 00:42:16;;;;;;;1.00;0.82;;;24.60;58.20;;;;;;6217242;28;20014;-69
2021/07/20 00:45:17;;;;;;;1.48;0.95;;;24.60;58.20;;;;;;6217126;28;20038;-70
2021/07/20 00:48:18;;;;;;;0.80;0.80;;;24.50;58.20;;;;;;6216819;28;20037;-69
2021/07/20 00:51:18;;;;;;;1.10;0.82;;;24.50;58.20;;;;;;6217057;28;20424;-69
2021/07/20 00:54:19;;;;;;;1.23;1.10;;;24.50;58.20;;;;;;6216822;28;20030;-69
2021/07/20 00:57:21;;;;;;;0.77;0.75;;;24.50;58.20;;;;;;6216730;28;20073;-69
2021/07/20 01:00:22;;;;;;;1.10;0.90;;;24.50;58.20;;;;;;6217098;28;20550;-69
2021/07/20 01:03:23;;;;;;;0.90;0.80;;;24.50;58.20;;;;;;6216636;28;20029;-69
2021/07/20 01:06:24;;;;;;;0.88;0.88;;;24.60;58.30;;;;;;6216734;28;20049;-71
2021/07/20 01:09:27;;;;;;;1.23;0.90;;;24.50;58.20;;;;;;6205223;28;20081;-69
2021/07/20 01:12:30;;;;;;;0.70;0.70;;;24.50;58.20;;;;;;6197028;28;20026;-69
2021/07/20 01:15:31;;;;;;;1.50;0.90;;;24.60;58.30;;;;;;6185483;28;20378;-69
2021/07/20 01:18:33;;;;;;;0.90;0.77;;;24.50;58.90;;;;;;6196091;28;20081;-69
2021/07/20 01:21:36;;;;;;;1.13;0.82;;;24.50;58.20;;;;;;6192279;28;20042;-69
2021/07/20 01:24:37;;;;;;;1.05;0.85;;;24.60;58.30;;;;;;6212373;28;20061;-69
2021/07/20 01:27:43;;;;;;;0.85;0.80;;;24.50;58.30;;;;;;6216096;28;20029;-69
2021/07/20 01:30:46;;;;;;;0.73;0.70;;;24.50;58.30;;;;;;6231742;28;20077;-69
2021/07/20 01:33:52;;;;;;;0.90;0.80;;;24.60;58.40;;;;;;6216328;28;20030;-69
2021/07/20 01:36:53;;;;;;;0.80;0.80;;;24.50;58.30;;;;;;6215864;28;20410;-69
2021/07/20 01:39:56;;;;;;;1.13;0.90;;;24.50;58.30;;;;;;6216086;28;20113;-69
2021/07/20 01:42:57;;;;;;;1.00;0.90;;;24.50;58.30;;;;;;6215966;28;20350;-69
2021/07/20 01:45:58;;;;;;;1.05;0.90;;;24.60;59.10;;;;;;6216379;28;20022;-69
2021/07/20 01:49:02;;;;;;;1.00;0.90;;;24.50;58.30;;;;;;6216161;28;20030;-69
2021/07/20 01:52:03;;;;;;;1.83;0.98;;;24.50;58.30;;;;;;6216367;28;20026;-69
2021/07/20 01:55:04;;;;;;;0.93;0.80;;;24.50;58.30;;;;;;6215839;28;20393;-69
2021/07/20 01:58:05;;;;;;;1.00;0.90;;;24.50;58.30;;;;;;6216186;28;20034;-69
2021/07/20 02:01:05;;;;;;;1.08;0.77;;;24.50;58.30;;;;;;6215979;28;20524;-69
2021/07/20 02:10:47;;;;;;;0.80;0.70;;;24.50;58.30;;;;;;6215674;28;20499;-69
2021/07/20 02:13:54;;;;;;;0.90;0.73;;;24.50;58.40;;;;;;6203364;28;20105;-69
2021/07/20 02:16:58;;;;;;;0.80;0.80;;;24.50;58.30;;;;;;6215780;28;20040;-69
2021/07/20 02:20:10;;;;;;;1.02;0.82;;;24.50;58.40;;;;;;6208868;28;20076;-69
2021/07/20 02:23:12;;;;;;;0.77;0.70;;;24.50;58.30;;;;;;6217327;28;20030;-69
2021/07/20 02:26:13;;;;;;;1.20;0.80;;;24.50;58.40;;;;;;6215482;28;20452;-69
2021/07/20 02:29:16;;;;;;;0.82;0.80;;;24.50;58.40;;;;;;6219731;28;20065;-69
2021/07/20 02:32:18;;;;;;;0.80;0.65;;;24.50;58.40;;;;;;6220645;28;20488;-69
2021/07/20 02:35:22;;;;;;;0.82;0.82;;;24.50;58.40;;;;;;6219782;28;20034;-69
2021/07/20 02:38:24;;;;;;;0.80;0.70;;;24.50;58.40;;;;;;6219884;28;20332;-69
2021/07/20 02:41:26;;;;;;;0.85;0.80;;;24.50;58.40;;;;;;6219829;28;20053;-69
2021/07/20 02:44:27;;;;;;;1.27;0.85;;;24.50;58.40;;;;;;6219827;28;20474;-69
2021/07/20 02:47:28;;;;;;;0.90;0.70;;;24.50;58.40;;;;;;6206308;28;20025;-69
2021/07/20 02:50:31;;;;;;;0.77;0.70;;;24.50;58.40;;;;;;6207561;28;20074;-69
2021/07/20 02:53:34;;;;;;;2.88;0.70;;;24.50;58.40;;;;;;6219324;28;20566;-69
2021/07/20 02:56:36;;;;;;;0.73;0.70;;;24.50;58.40;;;;;;6219224;28;20034;-69
2021/07/20 02:59:38;;;;;;;0.93;0.80;;;24.50;58.40;;;;;;6219144;28;20037;-69
2021/07/20 03:02:44;;;;;;;0.88;0.82;;;24.50;58.40;;;;;;6219411;28;20048;-70
2021/07/20 03:05:47;;;;;;;0.90;0.80;;;24.50;58.40;;;;;;6206832;28;20125;-69
2021/07/20 03:08:48;;;;;;;0.95;0.80;;;24.50;58.40;;;;;;6210362;28;20446;-69
2021/07/20 03:11:53;;;;;;;1.27;0.70;;;24.50;58.40;;;;;;6213207;28;20117;-69
2021/07/20 03:14:57;;;;;;;0.75;0.73;;;24.50;58.40;;;;;;6185715;28;20102;-69
2021/07/20 03:18:01;;;;;;;0.90;0.80;;;24.50;58.50;;;;;;6215671;28;20560;-69
2021/07/20 03:21:02;;;;;;;0.52;0.52;;;24.50;58.40;;;;;;6204995;28;20072;-69
2021/07/20 03:24:04;;;;;;;0.60;0.60;;;24.50;58.50;;;;;;6219092;28;20436;-69
2021/07/20 03:27:09;;;;;;;0.70;0.63;;;24.50;58.50;;;;;;6218478;28;20401;-69
2021/07/20 03:30:10;;;;;;;;;;;24.50;58.50;;;;;;6219154;28;20060;-69
2021/07/20 03:33:12;;;;;;;0.80;0.70;;;24.50;58.50;;;;;;6218845;28;20403;-69
2021/07/20 03:36:13;;;;;;;1.17;0.85;;;24.50;58.50;;;;;;6220812;28;20045;-69
2021/07/20 03:39:13;;;;;;;0.90;0.80;;;24.50;58.50;;;;;;6217495;28;20041;-69
2021/07/20 03:42:15;;;;;;;0.60;0.60;;;24.50;59.20;;;;;;6218765;28;20026;-69
2021/07/20 03:45:15;;;;;;;0.70;0.70;;;24.60;58.60;;;;;;6218602;28;20034;-69
2021/07/20 03:48:17;;;;;;;1.38;0.80;;;24.50;58.50;;;;;;6218256;28;20037;-70
2021/07/20 03:51:21;;;;;;;0.60;0.60;;;24.50;58.50;;;;;;6205119;28;20261;-69
2021/07/20 03:54:22;;;;;;;1.08;0.70;;;24.50;58.50;;;;;;6218306;28;20627;-69
2021/07/20 03:57:24;;;;;;;0.90;0.82;;;24.50;58.50;;;;;;6217806;28;20042;-69
2021/07/20 04:00:47;;;;;;;0.63;0.63;;;24.50;58.50;;;;;;6218196;28;20022;-69
2021/07/20 04:03:49;;;;;;;0.85;0.70;;;24.50;58.50;;;;;;6218393;28;20381;-69
2021/07/20 04:06:51;;;;;;;2.50;0.80;;;24.50;58.50;;;;;;6219817;28;20022;-69
2021/07/20 04:09:52;;;;;;;0.80;0.77;;;24.50;58.60;;;;;;6218497;28;20392;-69
2021/07/20 04:12:53;;;;;;;0.63;0.60;;;24.50;58.60;;;;;;6213083;28;20033;-69
2021/07/20 04:16:01;;;;;;;0.90;0.80;;;24.50;58.60;;;;;;6171884;28;20111;-69
2021/07/20 04:19:02;;;;;;;0.80;0.68;;;24.60;58.70;;;;;;6206009;28;20054;-69
2021/07/20 04:22:03;;;;;;;1.00;0.75;;;24.50;58.60;;;;;;6202925;28;20030;-69
2021/07/20 04:25:05;;;;;;;0.68;0.68;;;24.50;58.60;;;;;;6217367;28;20514;-69
2021/07/20 04:28:06;;;;;;;1.70;0.88;;;24.50;58.60;;;;;;6217702;28;20081;-69
2021/07/20 04:31:08;;;;;;;0.65;0.60;;;24.50;58.60;;;;;;6217015;28;20038;-70
2021/07/20 04:34:13;;;;;;;1.10;0.70;;;24.50;58.60;;;;;;6217374;28;20025;-69
2021/07/20 04:37:15;;;;;;;0.55;0.55;;;24.50;58.60;;;;;;6214692;28;20061;-69
2021/07/20 04:40:16;;;;;;;1.10;0.63;;;24.50;58.60;;;;;;6192833;28;20582;-69
2021/07/20 04:43:17;;;;;;;0.80;0.80;;;24.50;58.60;;;;;;6209604;28;20030;-69
2021/07/20 04:46:19;;;;;;;0.50;0.50;;;24.50;58.60;;;;;;6216644;28;20105;-69
2021/07/20 04:49:20;;;;;;;0.88;0.70;;;24.50;58.60;;;;;;6217225;28;20022;-69
2021/07/20 04:52:21;;;;;;;0.80;0.70;;;24.50;58.60;;;;;;6216653;28;20420;-69
2021/07/20 04:55:23;;;;;;;0.70;0.70;;;24.50;58.60;;;;;;6217147;28;20485;-69
2021/07/20 04:58:24;;;;;;;0.60;0.50;;;24.50;58.60;;;;;;6210382;28;20048;-70
2021/07/20 05:01:25;;;;;;;0.63;0.60;;;24.50;58.60;;;;;;6210691;28;20126;-69
2021/07/20 05:04:27;;;;;;;0.70;0.70;;;24.50;58.60;;;;;;6215287;28;20072;-69
2021/07/20 05:07:30;;;;;;;0.52;0.52;;;24.50;58.60;;;;;;6217095;28;20370;-69
2021/07/20 05:10:31;;;;;;;0.70;0.70;;;24.50;58.60;;;;;;6217094;28;20038;-69
2021/07/20 05:13:32;;;;;;;0.88;0.80;;;24.50;58.60;;;;;;6201387;28;20054;-69
2021/07/20 05:16:33;;;;;;;0.40;0.40;;;24.50;58.60;;;;;;6168146;28;20043;-69
2021/07/20 05:19:35;;;;;;;0.55;0.55;;;24.50;58.60;;;;;;6193255;28;20041;-69
2021/07/20 05:22:37;;;;;;;0.70;0.63;;;24.50;58.60;;;;;;6183412;28;20109;-69
2021/07/20 05:25:39;;;;;;;0.75;0.68;;;24.50;58.60;;;;;;6192097;28;20419;-69
2021/07/20 05:28:40;;;;;;;0.50;0.50;;;24.50;58.70;;;;;;6204219;28;20409;-69
2021/07/20 05:31:43;;;;;;;0.80;0.63;;;24.50;58.70;;;;;;6215252;28;20022;-69
2021/07/20 05:34:48;;;;;;;0.50;0.50;;;24.50;58.70;;;;;;6214708;28;20724;-69
2021/07/20 05:37:49;;;;;;;1.00;0.80;;;24.50;58.70;;;;;;6212617;28;20117;-69
2021/07/20 05:40:52;;;;;;;0.82;0.60;;;24.50;58.70;;;;;;6190887;28;20019;-69
2021/07/20 05:43:54;;;;;;;0.68;0.55;;;24.50;58.60;;;;;;6204529;28;20036;-69
2021/07/20 05:46:55;;;;;;;2.25;0.80;;;24.50;58.60;;;;;;6201320;28;20015;-70
2021/07/20 05:49:56;;;;;;;1.17;0.88;;;24.50;58.70;;;;;;6212539;28;20045;-69
2021/07/20 05:52:59;;;;;;;0.70;0.70;;;24.50;58.60;;;;;;6211484;28;20098;-69
2021/07/20 05:56:02;;;;;;;0.70;0.68;;;24.50;58.70;;;;;;6199031;28;20292;-69
2021/07/20 05:59:03;;;;;;;1.40;0.77;;;24.50;58.70;;;;;;6198937;28;20038;-69
2021/07/20 06:02:05;;;;;;;0.80;0.70;;;24.50;58.70;;;;;;6198958;28;20081;-69
2021/07/20 06:05:12;;;;;;;0.93;0.80;;;24.50;58.70;;;;;;6187262;28;20507;-70
2021/07/20 06:08:17;;;;;;;1.10;0.77;;;24.50;58.70;;;;;;6212338;28;20034;-69
2021/07/20 06:11:21;;;;;;;0.90;0.80;;;24.50;58.70;;;;;;6195135;28;20037;-69
2021/07/20 06:14:22;;;;;;;0.90;0.77;;;24.50;58.70;;;;;;6202558;28;20030;-69
2021/07/20 06:17:24;;;;;;;1.20;0.90;;;24.50;58.70;;;;;;6222243;28;20048;-69
2021/07/20 06:20:24;;;;;;;0.98;0.60;;;24.50;58.70;;;;;;6219846;28;20072;-69
2021/07/20 06:23:29;;;;;;;0.70;0.70;;;24.50;58.70;;;;;;6197945;28;20472;-69
2021/07/20 06:26:30;;;;;;;2.15;1.00;;;24.50;58.70;;;;;;6203392;28;20050;-69
2021/07/20 06:29:34;;;;;;;1.02;0.80;;;24.50;58.70;;;;;;6211103;28;20057;-69
2021/07/20 06:32:36;;;;;;;0.80;0.70;;;24.50;58.70;;;;;;6211409;28;20513;-69
2021/07/20 06:35:40;;;;;;;0.70;0.70;;;24.50;58.70;;;;;;6209096;28;20026;-69
2021/07/20 06:38:41;;;;;;;1.33;0.70;;;24.50;58.70;;;;;;6200362;28;20168;-69
2021/07/20 06:41:42;;;;;;;1.13;1.02;;;24.50;58.70;;;;;;6209094;28;20137;-69
2021/07/20 06:44:44;;;;;;;1.00;0.80;;;24.50;58.70;;;;;;6210320;28;20017;-69
2021/07/20 06:47:49;;;;;;;0.70;0.63;;;24.50;58.70;;;;;;6197983;28;20034;-69
2021/07/20 06:50:52;;;;;;;0.68;0.68;;;24.50;58.70;;;;;;6228821;28;20037;-70
2021/07/20 06:53:53;;;;;;;1.15;0.73;;;24.50;58.70;;;;;;6201937;28;20065;-69
2021/07/20 06:56:55;;;;;;;0.82;0.70;;;24.50;58.70;;;;;;6220140;28;20034;-69
2021/07/20 06:59:59;;;;;;;1.13;0.70;;;24.50;58.70;;;;;;6205186;28;20459;-69
2021/07/20 07:03:01;;;;;;;0.70;0.68;;;24.50;58.70;;;;;;6221231;28;20113;-70
2021/07/20 07:06:03;;;;;;;4.00;0.65;;;24.50;58.80;;;;;;6203311;28;20039;-70
2021/07/20 07:09:04;;;;;;;0.90;0.68;;;24.50;58.70;;;;;;6196611;28;20022;-70
2021/07/20 07:12:05;;;;;;;0.90;0.60;;;24.50;58.70;;;;;;6219117;28;20026;-70
2021/07/20 07:15:07;;;;;;;0.65;0.65;;;24.60;58.80;;;;;;6192495;28;20022;-70
2021/07/20 07:18:08;;;;;;;1.00;0.60;;;24.50;58.70;;;;;;6204252;28;20113;-70
2021/07/20 07:21:11;;;;;;;0.82;0.70;;;24.50;58.70;;;;;;6211048;28;20022;-70
2021/07/20 07:24:16;;;;;;;0.60;0.50;;;24.50;58.70;;;;;;6219070;28;20092;-70
2021/07/20 07:27:19;;;;;;;0.88;0.50;;;24.50;58.70;;;;;;6218840;28;20022;-70
2021/07/20 07:30:20;;;;;;;0.60;0.60;;;24.50;58.70;;;;;;6219465;28;20524;-70
2021/07/20 07:33:22;;;;;;;0.80;0.70;;;24.50;58.80;;;;;;6221859;28;20574;-70
2021/07/20 07:36:24;;;;;;;0.60;0.60;;;24.50;58.80;;;;;;6209123;28;20036;-70
2021/07/20 07:39:25;;;;;;;0.80;0.70;;;24.50;58.80;;;;;;6221391;28;20077;-70
2021/07/20 07:42:27;;;;;;;0.52;0.52;;;24.60;58.90;;;;;;6221659;28;20025;-70
2021/07/20 07:45:28;;;;;;;0.68;0.60;;;24.50;58.80;;;;;;6220705;28;20056;-70
2021/07/20 07:48:36;;;;;;;0.68;0.68;;;24.50;58.80;;;;;;6221587;28;20101;-70
2021/07/20 07:51:39;;;;;;;0.57;0.57;;;24.50;58.80;;;;;;6220948;28;20029;-70
2021/07/20 07:54:41;;;;;;;1.70;0.80;;;24.50;58.80;;;;;;6221016;28;20033;-70
2021/07/20 07:57:43;;;;;;;1.23;0.70;;;24.50;58.80;;;;;;6190987;28;20050;-68
2021/07/20 08:00:47;;;;;;;2.00;0.60;;;24.50;59.10;;;;;;6209902;28;20097;-68
2021/07/20 08:03:50;;;;;;;0.73;0.70;;;24.50;58.90;;;;;;6200509;28;20109;-68
2021/07/20 08:06:52;;;;;;;0.60;0.60;;;24.50;58.90;;;;;;6204952;28;20029;-68
2021/07/20 08:09:53;;;;;;;0.70;0.60;;;24.50;58.80;;;;;;6206968;28;20516;-68
2021/07/20 08:12:55;;;;;;;1.05;0.77;;;24.50;58.80;;;;;;6198873;28;20425;-68
2021/07/20 08:15:57;;;;;;;0.60;0.50;;;24.50;58.90;;;;;;6198082;28;20030;-68
2021/07/20 08:18:59;;;;;;;0.55;0.52;;;24.50;58.80;;;;;;6220020;28;20084;-68
2021/07/20 08:22:02;;;;;;;0.65;0.50;;;24.50;58.80;;;;;;6220871;28;20069;-68
2021/07/20 08:25:33;;;;;;;0.50;0.50;;;24.50;58.90;;;;;;6219620;28;20034;-69
2021/07/20 08:29:06;;;;;;;1.17;0.85;;;24.50;58.80;;;;;;6219831;28;20049;-68
2021/07/20 08:32:11;;;;;;;1.00;0.60;;;24.50;58.90;;;;;;6220060;28;20058;-68
2021/07/20 08:35:18;;;;;;;0.60;0.60;;;24.50;58.90;;;;;;6211450;28;20026;-69
2021/07/20 08:38:20;;;;;;;1.13;0.52;;;24.50;58.90;;;;;;6213529;28;20045;-68
2021/07/20 08:41:30;;;;;;;0.55;0.50;;;24.50;58.90;;;;;;6220211;28;20477;-68
2021/07/20 08:44:46;;;;;;;0.73;0.50;;;24.50;58.90;;;;;;6234937;28;20061;-68
2021/07/20 08:48:06;;;;;;;0.93;0.60;;;24.50;58.90;;;;;;6219428;28;20065;-68
2021/07/20 08:51:18;;;;;;;1.30;0.65;;;24.50;58.90;;;;;;6219942;28;20503;-68
2021/07/20 08:54:28;;;;;;;0.63;0.50;;;24.50;58.90;;;;;;6219465;28;20476;-68
2021/07/20 08:57:38;;;;;;;0.70;0.60;;;24.50;58.90;;;;;;6219724;28;20046;-68
2021/07/20 09:00:41;;;;;;;1.00;0.52;;;24.50;58.90;;;;;;6219897;28;20036;-69
2021/07/20 09:04:02;;;;;;;0.50;0.50;;;24.50;58.90;;;;;;6202266;28;20019;-68
2021/07/20 09:07:10;;;;;;;0.40;0.40;;;24.50;58.90;;;;;;6194910;28;20030;-68
2021/07/20 09:10:13;;;;;;;0.68;0.60;;;24.50;58.90;;;;;;6219680;28;20021;-68
2021/07/20 09:13:25;;;;;;;0.60;0.60;;;24.50;59.00;;;;;;6224726;28;20362;-68
2021/07/20 09:16:33;;;;;;;0.50;0.50;;;24.50;58.90;;;;;;6205742;28;20030;-69
2021/07/20 09:19:50;;;;;;;0.60;0.50;;;24.50;58.90;;;;;;6203375;28;20658;-68
2021/07/20 09:22:56;;;;;;;0.50;0.50;;;24.50;58.90;;;;;;6198487;28;20513;-68
2021/07/20 09:26:08;;;;;;;0.60;0.60;;;24.50;58.90;;;;;;6219640;28;20026;-69
2021/07/20 09:29:15;;;;;;;0.50;0.50;;;24.50;58.90;;;;;;6218853;28;20168;-68
2021/07/20 09:32:24;;;;;;;0.55;0.55;;;24.50;58.90;;;;;;6219045;28;20104;-69
2021/07/20 09:35:50;;;;;;;0.70;0.68;;;24.50;58.90;;;;;;6219045;28;20026;-68
2021/07/20 09:38:58;;;;;;;0.50;0.50;;;24.50;58.90;;;;;;6218903;28;20038;-68
2021/07/20 09:42:08;;;;;;;0.75;0.70;;;24.50;59.00;;;;;;6219522;28;20117;-68
2021/07/20 09:45:19;;;;;;;0.90;0.70;;;24.50;59.00;;;;;;6219151;28;20018;-68
2021/07/20 09:48:30;;;;;;;0.60;0.50;;;24.50;59.00;;;;;;6219635;28;20100;-68
2021/07/20 09:51:49;;;;;;;1.00;0.60;;;24.50;59.00;;;;;;6219197;28;20022;-68
2021/07/20 09:55:31;;;;;;;0.85;0.60;;;24.50;59.00;;;;;;6218642;28;20389;-68
2021/07/20 09:59:11;;;;;;;0.73;0.60;;;24.50;59.00;;;;;;6218367;28;20038;-68
2021/07/20 10:02:24;;;;;;;1.35;0.47;;;24.50;59.00;;;;;;6218942;28;20033;-68
2021/07/20 10:05:45;;;;;;;0.50;0.30;;;24.50;59.00;;;;;;6219145;28;20022;-68
2021/07/20 10:09:02;;;;;;;0.40;0.40;;;24.50;59.00;;;;;;6218865;28;20026;-68
2021/07/20 10:12:15;;;;;;;0.52;0.50;;;24.50;59.00;;;;;;6219019;28;20026;-68
2021/07/20 10:15:19;;;;;;;0.52;0.40;;;24.50;59.00;;;;;;6205926;28;20028;-68
2021/07/20 10:18:30;;;;;;;0.55;0.50;;;24.50;59.00;;;;;;6212690;28;20417;-68
2021/07/20 10:21:34;;;;;;;0.65;0.60;;;24.50;59.00;;;;;;6194182;28;20444;-68
2021/07/20 10:24:43;;;;;;;0.50;0.50;;;24.50;59.10;;;;;;6202223;28;20399;-68
2021/07/20 10:28:12;;;;;;;1.20;0.60;;;24.50;59.00;;;;;;6218481;28;20030;-68
2021/07/20 10:31:25;;;;;;;0.90;0.63;;;24.60;59.20;;;;;;6218081;28;20076;-68
2021/07/20 10:34:28;;;;;;;0.40;0.40;;;24.50;59.10;;;;;;6217876;28;20022;-68
2021/07/20 10:37:36;;;;;;;0.60;0.57;;;24.50;59.10;;;;;;6218872;28;20512;-68
2021/07/20 10:40:39;;;;;;;1.23;0.57;;;24.50;59.10;;;;;;6217929;28;20231;-68
2021/07/20 10:43:45;;;;;;;0.70;0.50;;;24.50;59.10;;;;;;6218388;28;20022;-68
2021/07/20 10:46:50;;;;;;;0.57;0.50;;;24.50;59.10;;;;;;6218041;28;20539;-68
2021/07/20 10:50:05;;;;;;;1.63;0.63;;;24.50;59.10;;;;;;6221770;28;20473;-68
2021/07/20 10:53:32;;;;;;;0.83;0.50;;;24.50;59.10;;;;;;6222993;28;20242;-68
2021/07/20 10:56:41;;;;;;;0.98;0.65;;;24.50;59.10;;;;;;6221611;28;20449;-68
2021/07/20 11:00:07;;;;;;;0.55;0.50;;;24.50;59.10;;;;;;6221923;28;20444;-68
2021/07/20 11:03:15;;;;;;;0.70;0.55;;;24.50;59.10;;;;;;6222460;28;20021;-69
2021/07/20 11:06:20;;;;;;;0.52;0.52;;;24.50;59.10;;;;;;6207970;28;20146;-68
2021/07/20 11:09:22;;;;;;;1.55;0.57;;;24.50;59.10;;;;;;6197888;28;20026;-68
2021/07/20 11:12:27;;;;;;;0.90;0.60;;;24.50;59.10;;;;;;6217809;28;20493;-68
2021/07/20 11:15:30;;;;;;;0.60;0.60;;;24.50;59.10;;;;;;6184011;28;20022;-68
2021/07/20 11:18:34;;;;;;;0.60;0.60;;;24.50;59.10;;;;;;6214195;28;20039;-68
2021/07/20 11:21:35;;;;;;;0.70;0.52;;;24.50;59.10;;;;;;6210151;28;20037;-68
2021/07/20 11:24:36;;;;;;;0.50;0.50;;;24.50;59.10;;;;;;6222210;28;20092;-68
2021/07/20 11:27:39;;;;;;;1.67;0.60;;;24.50;59.10;;;;;;6221511;28;20413;-68
2021/07/20 11:30:44;;;;;;;0.60;0.60;;;24.50;59.10;;;;;;6221418;28;20057;-68
2021/07/20 11:34:13;;;;;;;0.63;0.50;;;24.50;59.10;;;;;;6221480;28;20512;-68
2021/07/20 11:37:27;;;;;;;0.55;0.55;;;24.50;59.10;;;;;;6208974;28;20050;-68
2021/07/20 11:40:37;;;;;;;0.70;0.50;;;24.50;59.10;;;;;;6197690;28;20030;-68
2021/07/20 11:44:00;;;;;;;0.60;0.50;;;24.50;59.10;;;;;;6221164;28;20025;-68
2021/07/20 11:47:23;;;;;;;0.52;0.52;;;24.50;59.10;;;;;;6220453;28;20026;-68
2021/07/20 11:50:41;;;;;;;0.80;0.55;;;24.50;59.10;;;;;;6220620;28;20073;-68
2021/07/20 11:54:09;;;;;;;0.52;0.40;;;24.50;59.10;;;;;;6221429;28;20483;-68
2021/07/20 11:57:47;;;;;;;0.93;0.70;;;24.50;59.10;;;;;;6220560;28;20026;-68
2021/07/20 12:01:18;;;;;;;0.52;0.50;;;24.50;59.10;;;;;;6219947;28;20098;-67
2021/07/20 12:04:46;;;;;;;0.43;0.43;;;24.50;59.10;;;;;;6220873;28;20022;-68
2021/07/20 12:07:54;;;;;;;1.95;0.68;;;24.50;59.20;;;;;;6222839;28;20033;-68
2021/07/20 12:11:15;;;;;;;0.80;0.50;;;24.50;59.10;;;;;;6220478;28;20114;-68
2021/07/20 12:14:16;;;;;;;0.90;0.60;;;24.50;59.20;;;;;;6193840;28;20046;-67
2021/07/20 12:17:16;;;;;;;0.60;0.60;;;24.50;59.10;;;;;;6191932;28;20026;-68
2021/07/20 12:20:19;;;;;;;0.82;0.70;;;24.50;59.10;;;;;;6198447;28;20042;-67
2021/07/20 12:23:20;;;;;;;0.47;0.40;;;24.50;59.10;;;;;;6214032;28;20037;-68
2021/07/20 12:26:23;;;;;;;0.50;0.50;;;24.50;59.10;;;;;;6219863;28;20061;-68
2021/07/20 12:29:23;;;;;;;0.60;0.50;;;24.50;59.10;;;;;;6220114;28;20038;-68
2021/07/20 12:32:30;;;;;;;0.70;0.60;;;24.50;59.10;;;;;;6220106;28;20481;-68
2021/07/20 12:35:32;;;;;;;0.68;0.52;;;24.50;59.10;;;;;;6222578;28;20038;-67
2021/07/20 12:38:34;;;;;;;0.47;0.47;;;24.50;59.10;;;;;;6219647;28;20103;-67
2021/07/20 12:41:35;;;;;;;0.47;0.40;;;24.50;59.20;;;;;;6219994;28;20025;-68
2021/07/20 12:44:37;;;;;;;0.50;0.50;;;24.50;59.10;;;;;;6219741;28;20025;-67
2021/07/20 12:47:42;;;;;;;0.52;0.40;;;24.50;59.10;;;;;;6220158;28;20017;-67
2021/07/20 12:50:43;;;;;;;0.77;0.65;;;24.50;59.10;;;;;;6219812;28;20029;-67
2021/07/20 12:53:45;;;;;;;0.55;0.50;;;24.50;59.10;;;;;;6219685;28;20033;-67
2021/07/20 12:56:46;;;;;;;0.82;0.63;;;24.50;59.20;;;;;;6219329;28;20083;-68
2021/07/20 12:59:48;;;;;;;0.57;0.50;;;24.50;59.10;;;;;;6218547;28;20042;-68
2021/07/20 13:02:53;;;;;;;0.52;0.50;;;24.50;59.20;;;;;;6219503;28;20073;-67
2021/07/20 13:05:53;;;;;;;0.63;0.57;;;24.50;59.10;;;;;;6219144;28;20132;-67
2021/07/20 13:08:54;;;;;;;0.75;0.60;;;24.50;59.20;;;;;;6219637;28;20033;-67
2021/07/20 13:11:55;;;;;;;0.50;0.50;;;24.50;59.20;;;;;;6217635;28;20029;-68
2021/07/20 13:15:11;;;;;;;0.50;0.40;;;24.50;59.20;;;;;;6181761;28;20069;-67
2021/07/20 13:18:12;;;;;;;0.35;0.35;;;24.50;59.20;;;;;;6181893;28;20030;-68
2021/07/20 13:21:18;;;;;;;0.88;0.50;;;24.50;59.20;;;;;;6201027;28;20033;-67
2021/07/20 13:24:19;;;;;;;0.50;0.50;;;24.50;59.20;;;;;;6218890;28;20117;-67
2021/07/20 13:27:20;;;;;;;0.50;0.50;;;24.50;59.20;;;;;;6219571;28;20376;-68
2021/07/20 13:30:27;;;;;;;1.55;0.70;;;24.50;59.20;;;;;;6218961;28;20089;-67
2021/07/20 13:33:28;;;;;;;0.40;0.40;;;24.50;59.20;;;;;;6219008;28;20036;-68
2021/07/20 13:36:34;;;;;;;0.50;0.50;;;24.50;59.20;;;;;;6219301;28;20482;-67
2021/07/20 13:39:35;;;;;;;0.82;0.52;;;24.50;59.20;;;;;;6218348;28;20038;-67
2021/07/20 13:42:38;;;;;;;0.60;0.50;;;24.50;59.20;;;;;;6219164;28;20143;-67
2021/07/20 13:45:38;;;;;;;0.50;0.50;;;24.50;59.20;;;;;;6218755;28;20112;-67
2021/07/20 13:48:44;;;;;;;0.73;0.40;;;24.50;59.20;;;;;;6218555;28;20079;-68
2021/07/20 13:51:47;;;;;;;0.40;0.40;;;24.50;59.20;;;;;;6219212;28;20117;-68
2021/07/20 13:54:50;;;;;;;0.95;0.65;;;24.50;59.20;;;;;;6218763;28;20026;-68
2021/07/20 13:57:51;;;;;;;0.52;0.47;;;24.50;59.20;;;;;;6218661;28;20053;-67
2021/07/20 14:00:52;;;;;;;0.43;0.40;;;24.50;59.20;;;;;;6218763;28;20378;-68
2021/07/20 14:03:53;;;;;;;0.57;0.50;;;24.50;59.20;;;;;;6196581;28;20046;-68
2021/07/20 14:06:55;;;;;;;0.82;0.52;;;24.50;59.20;;;;;;6192066;28;20413;-68
2021/07/20 14:09:56;;;;;;;0.55;0.50;;;24.40;59.20;;;;;;6198194;28;20068;-68
2021/07/20 14:12:57;;;;;;;1.20;0.88;;;24.40;58.50;;;;;;6189979;28;20039;-67
2021/07/20 14:15:59;;;;;;;3.83;1.48;;;24.40;57.60;;;;;;6204755;28;20022;-68
2021/07/20 14:19:01;;;;;;;4.32;1.70;;;24.40;56.20;;;;;;6203203;28;20121;-67
2021/07/20 14:22:02;;;;;;;3.22;1.60;;;24.40;55.80;;;;;;6200386;28;20026;-67
2021/07/20 14:25:03;;;;;;;4.78;2.08;;;24.40;55.60;;;;;;6204735;28;20034;-67
2021/07/20 14:28:04;;;;;;;3.78;1.90;;;24.40;54.60;;;;;;6221341;28;20429;-68
2021/07/20 14:31:05;;;;;;;3.53;1.75;;;24.40;56.00;;;;;;6220356;28;20034;-68
2021/07/20 14:34:11;;;;;;;6.20;2.40;;;24.40;55.90;;;;;;6208105;28;20378;-67
2021/07/20 14:37:49;;;;;;;5.55;2.47;;;24.40;55.40;;;;;;6216959;28;20496;-68
2021/07/20 14:40:50;;;;;;;5.20;2.38;;;24.40;55.20;;;;;;6219430;28;20557;-68
2021/07/20 14:43:59;;;;;;;4.57;2.20;;;24.40;55.30;;;;;;6220768;28;20083;-67
2021/07/20 14:46:59;;;;;;;9.20;2.50;;;24.40;54.10;;;;;;6201685;28;20030;-68
2021/07/20 14:50:19;;;;;;;5.75;2.40;;;24.40;53.90;;;;;;6201709;28;20234;-68
2021/07/20 14:53:25;;;;;;;7.80;2.33;;;24.40;54.00;;;;;;6218467;28;20018;-68
2021/07/20 14:56:26;;;;;;;6.90;2.72;;;24.40;54.20;;;;;;6199746;28;20049;-68
2021/07/20 14:59:42;;;;;;;7.97;2.90;;;24.40;53.40;;;;;;6194118;28;20065;-68
2021/07/20 15:02:42;;;;;;;7.20;2.47;;;24.40;54.10;;;;;;6219871;28;20033;-68
2021/07/20 15:05:51;;;;;;;9.50;3.22;;;24.30;53.50;;;;;;6213988;28;20034;-68
2021/07/20 15:08:57;;;;;;;4.55;2.20;;;24.40;53.20;;;;;;6194959;28;20023;-68
2021/07/20 15:11:58;;;;;;;8.98;3.00;;;24.30;53.80;;;;;;6215833;28;20030;-67
2021/07/20 15:14:58;;;;;;;4.72;1.95;;;24.30;53.50;;;;;;6183180;28;20390;-68
2021/07/20 15:18:03;;;;;;;7.40;3.03;;;24.30;54.90;;;;;;6179534;28;20039;-68
2021/07/20 15:21:04;;;;;;;4.45;2.22;;;24.30;54.10;;;;;;6199431;28;20197;-68
2021/07/20 15:24:07;;;;;;;5.97;3.13;;;24.30;53.60;;;;;;6194524;28;20034;-68
2021/07/20 15:27:12;;;;;;;9.50;2.70;;;24.30;53.00;;;;;;6200060;28;20034;-68
2021/07/20 15:30:14;;;;;;;4.28;2.45;;;24.30;53.50;;;;;;6195455;28;20053;-67
2021/07/20 15:33:14;;;;;;;5.63;2.28;;;24.30;54.40;;;;;;6202053;28;20509;-68
2021/07/20 15:36:17;;;;;;;4.47;2.38;;;24.20;54.80;;;;;;6203886;28;20022;-68
2021/07/20 15:39:17;;;;;;;5.63;2.30;;;24.20;55.00;;;;;;6195865;28;20121;-67
2021/07/20 15:42:29;;;;;;;4.40;2.35;;;24.20;54.50;;;;;;6210168;28;20040;-68
2021/07/20 15:45:29;;;;;;;4.53;2.17;;;24.20;54.90;;;;;;6198057;28;20022;-67
2021/07/20 15:48:30;;;;;;;4.50;2.30;;;24.20;53.80;;;;;;6217422;28;20481;-67
2021/07/20 15:51:30;;;;;;;6.32;2.60;;;24.20;54.60;;;;;;6215712;28;20061;-67
2021/07/20 15:54:31;;;;;;;4.45;2.10;;;24.20;54.90;;;;;;6194860;28;20382;-67
2021/07/20 15:57:33;;;;;;;3.28;1.95;;;24.20;54.50;;;;;;6198266;28;20030;-67
2021/07/20 16:00:35;;;;;;;5.25;2.15;;;24.20;55.10;;;;;;6197028;28;20034;-68
2021/07/20 16:03:37;;;;;;;4.95;2.33;;;24.20;55.70;;;;;;6216869;28;20022;-68
2021/07/20 16:06:38;;;;;;;6.30;2.38;;;24.20;54.30;;;;;;6208586;28;20081;-67
2021/07/20 16:09:43;;;;;;;4.65;2.00;;;24.20;54.80;;;;;;6194657;28;20406;-67
2021/07/20 16:12:46;;;;;;;4.32;1.65;;;24.20;54.70;;;;;;6197448;28;20452;-67